Time,TemperatureF,DewpointF,PressureIn,WindDirection,WindDirectionDegrees,WindSpeedMPH,WindSpeedGustMPH,Humidity,HourlyPrecipIn,Conditions,Clouds,dailyrainin,SoftwareType,DateUTC
2013-03-07 00:14:00,40.5,26.4,30.09,SE,135,7.8,-999.0,57,-99.99,,,0.00,Acu-Link.com,2013-03-07 06:14:00,
2013-03-07 00:29:00,40.1,26.5,30.09,ESE,112,10.3,-999.0,58,-99.99,,,0.00,Acu-Link.com,2013-03-07 06:29:00,
2013-03-07 00:44:00,39.9,26.4,30.09,ESE,112,7.4,-999.0,58,-99.99,,,0.00,Acu-Link.com,2013-03-07 06:44:00,
2013-03-07 00:59:00,39.4,26.3,30.08,ESE,112,8.9,-999.0,59,-99.99,,,0.00,Acu-Link.com,2013-03-07 06:59:00,
2013-03-07 01:14:00,39.4,26.3,30.08,SE,135,9.8,-999.0,59,-99.99,,,0.00,Acu-Link.com,2013-03-07 07:14:00,
2013-03-07 01:29:00,39.9,26.4,30.08,ESE,112,9.4,-999.0,58,-99.99,,,0.00,Acu-Link.com,2013-03-07 07:29:00,
2013-03-07 01:44:00,39.4,26.3,30.08,ESE,112,8.3,-999.0,59,-99.99,,,0.00,Acu-Link.com,2013-03-07 07:44:00,
2013-03-07 02:00:00,39.4,26.3,30.07,ESE,112,8.9,-999.0,59,-99.99,,,0.00,Acu-Link.com,2013-03-07 08:00:00,
2013-03-07 02:15:00,39.9,26.4,30.07,SSE,157,11.0,-999.0,58,-99.99,,,0.00,Acu-Link.com,2013-03-07 08:15:00,
2013-03-07 02:30:00,41.0,26.1,30.07,South,180,10.3,-999.0,55,-99.99,,,0.00,Acu-Link.com,2013-03-07 08:30:00,
2013-03-07 02:45:00,41.4,26.0,30.06,SSE,157,10.3,-999.0,54,-99.99,,,0.00,Acu-Link.com,2013-03-07 08:45:00,
2013-03-07 03:00:00,41.4,26.0,30.05,SSE,157,9.4,-999.0,54,-99.99,,,0.00,Acu-Link.com,2013-03-07 09:00:00,
2013-03-07 03:15:00,41.2,25.8,30.04,SE,135,9.8,-999.0,54,-99.99,,,0.00,Acu-Link.com,2013-03-07 09:15:00,
2013-03-07 03:31:00,41.4,25.5,30.04,SSE,157,14.1,-999.0,53,-99.99,,,0.00,Acu-Link.com,2013-03-07 09:31:00,
2013-03-07 03:46:00,41.2,25.4,30.03,SE,135,9.4,-999.0,53,-99.99,,,0.00,Acu-Link.com,2013-03-07 09:46:00,
2013-03-07 04:01:00,40.8,25.5,30.03,SE,135,9.8,-999.0,54,-99.99,,,0.00,Acu-Link.com,2013-03-07 10:01:00,
2013-03-07 04:16:00,40.5,25.6,30.03,SSE,157,8.9,-999.0,55,-99.99,,,0.00,Acu-Link.com,2013-03-07 10:16:00,
2013-03-07 04:31:00,40.1,25.7,30.03,SSE,157,8.9,-999.0,56,-99.99,,,0.00,Acu-Link.com,2013-03-07 10:31:00,
2013-03-07 04:47:00,39.9,25.9,30.03,SSE,157,8.9,-999.0,57,-99.99,,,0.00,Acu-Link.com,2013-03-07 10:47:00,
2013-03-07 05:02:00,39.7,26.2,30.03,SSE,157,10.3,-999.0,58,-99.99,,,0.00,Acu-Link.com,2013-03-07 11:02:00,
2013-03-07 05:17:00,39.6,26.0,30.03,SSE,157,11.0,-999.0,58,-99.99,,,0.00,Acu-Link.com,2013-03-07 11:17:00,
2013-03-07 05:32:00,39.6,26.0,30.03,SSE,157,9.8,-999.0,58,-99.99,,,0.00,Acu-Link.com,2013-03-07 11:32:00,
2013-03-07 05:47:00,39.6,26.0,30.04,SSE,157,8.3,-999.0,58,-99.99,,,0.00,Acu-Link.com,2013-03-07 11:47:00,
2013-03-07 06:03:00,39.4,26.3,30.04,SE,135,7.8,-999.0,59,-99.99,,,0.00,Acu-Link.com,2013-03-07 12:03:00,
2013-03-07 06:18:00,39.2,26.1,30.04,SSE,157,8.3,-999.0,59,-99.99,,,0.00,Acu-Link.com,2013-03-07 12:18:00,
2013-03-07 06:33:00,39.2,26.5,30.04,SSE,157,9.4,-999.0,60,-99.99,,,0.00,Acu-Link.com,2013-03-07 12:33:00,
2013-03-07 06:48:00,39.0,26.3,30.04,SSE,157,10.3,-999.0,60,-99.99,,,0.00,Acu-Link.com,2013-03-07 12:48:00,
2013-03-07 07:03:00,39.0,26.3,30.05,SSE,157,7.8,-999.0,60,-99.99,,,0.00,Acu-Link.com,2013-03-07 13:03:00,
2013-03-07 07:19:00,39.6,26.4,30.06,SE,135,7.8,-999.0,59,-99.99,,,0.00,Acu-Link.com,2013-03-07 13:19:00,
2013-03-07 07:34:00,40.6,26.6,30.06,SSE,157,7.8,-999.0,57,-99.99,,,0.00,Acu-Link.com,2013-03-07 13:34:00,
2013-03-07 07:49:00,42.3,27.3,30.07,South,180,10.3,-999.0,55,-99.99,,,0.00,Acu-Link.com,2013-03-07 13:49:00,
2013-03-07 08:04:00,43.0,27.0,30.07,SE,135,9.4,-999.0,53,-99.99,,,0.00,Acu-Link.com,2013-03-07 14:04:00,
2013-03-07 08:20:00,44.1,27.6,30.07,SSE,157,11.9,-999.0,52,-99.99,,,0.00,Acu-Link.com,2013-03-07 14:20:00,
2013-03-07 08:35:00,45.0,27.9,30.08,South,180,11.9,-999.0,51,-99.99,,,0.00,Acu-Link.com,2013-03-07 14:35:00,
2013-03-07 08:50:00,46.8,29.1,30.08,SSW,202,11.9,-999.0,50,-99.99,,,0.00,Acu-Link.com,2013-03-07 14:50:00,
2013-03-07 09:05:00,48.6,29.8,30.08,SSE,157,7.4,-999.0,48,-99.99,,,0.00,Acu-Link.com,2013-03-07 15:05:00,
2013-03-07 09:20:00,50.0,29.0,30.08,SSE,157,11.4,-999.0,44,-99.99,,,0.00,Acu-Link.com,2013-03-07 15:20:00,
2013-03-07 09:36:00,51.8,29.4,30.08,South,180,9.8,-999.0,42,-99.99,,,0.00,Acu-Link.com,2013-03-07 15:36:00,
2013-03-07 09:51:00,52.9,28.6,30.08,SSE,157,11.4,-999.0,39,-99.99,,,0.00,Acu-Link.com,2013-03-07 15:51:00,
2013-03-07 10:06:00,54.9,29.7,30.08,SSE,157,11.4,-999.0,38,-99.99,,,0.00,Acu-Link.com,2013-03-07 16:06:00,
2013-03-07 10:21:00,56.3,29.7,30.08,SSE,157,14.1,-999.0,36,-99.99,,,0.00,Acu-Link.com,2013-03-07 16:21:00,
2013-03-07 10:36:00,57.0,29.6,30.07,SSW,202,17.0,-999.0,35,-99.99,,,0.00,Acu-Link.com,2013-03-07 16:36:00,
2013-03-07 10:52:00,58.1,29.2,30.07,SSE,157,14.1,-999.0,33,-99.99,,,0.00,Acu-Link.com,2013-03-07 16:52:00,
2013-03-07 11:07:00,59.4,28.7,30.06,SSE,157,15.4,-999.0,31,-99.99,,,0.00,Acu-Link.com,2013-03-07 17:07:00,